Time,TemperatureF,DewpointF,PressureIn,WindDirection,WindDirectionDegrees,WindSpeedMPH,WindSpeedGustMPH,Humidity,HourlyPrecipIn,Conditions,Clouds,dailyrainin,SoftwareType,DateUTC
2013-07-20 00:04:00,63.9,55.8,29.92,North,0,0.0,0.0,75,0.00,CLR,CLR,0.00,WeatherDisplay:10.37,2013-07-20 07:04:00,
2013-07-20 00:09:00,63.9,55.8,29.92,North,0,0.0,0.0,75,0.00,OVC,OVC,0.00,WeatherDisplay:10.37,2013-07-20 07:09:00,
2013-07-20 00:14:00,63.7,55.6,29.92,North,0,0.0,0.0,75,0.00,OVC,OVC,0.00,WeatherDisplay:10.37,2013-07-20 07:14:00,
2013-07-20 00:24:00,63.3,55.6,29.92,North,0,0.0,0.0,76,0.00,OVC,OVC,0.00,WeatherDisplay:10.37,2013-07-20 07:24:00,
2013-07-20 00:34:00,63.0,55.3,29.92,North,0,0.0,0.0,76,0.00,OVC,OVC,0.00,WeatherDisplay:10.37,2013-07-20 07:34:00,
2013-07-20 00:44:00,62.8,55.1,29.92,North,0,0.0,0.0,76,0.00,OVC,OVC,0.00,WeatherDisplay:10.37,2013-07-20 07:44:00,
2013-07-20 00:54:00,62.4,54.8,29.92,North,0,0.0,0.0,76,0.00,OVC,OVC,0.00,WeatherDisplay:10.37,2013-07-20 07:54:00,
2013-07-20 01:04:00,62.2,54.6,29.92,North,0,0.0,0.0,76,0.00,OVC,OVC,0.00,WeatherDisplay:10.37,2013-07-20 08:04:00,
2013-07-20 01:09:00,62.1,54.4,29.92,North,0,0.0,0.0,76,0.00,OVC,OVC,0.00,WeatherDisplay:10.37,2013-07-20 08:09:00,
2013-07-20 01:14:00,62.1,54.4,29.92,North,0,0.0,0.0,76,0.00,OVC,OVC,0.00,WeatherDisplay:10.37,2013-07-20 08:14:00,
2013-07-20 01:24:00,61.7,54.1,29.92,North,0,0.0,0.0,76,0.00,OVC,OVC,0.00,WeatherDisplay:10.37,2013-07-20 08:24:00,
2013-07-20 01:34:00,61.5,53.9,29.92,North,0,0.0,0.0,76,0.00,OVC,OVC,0.00,WeatherDisplay:10.37,2013-07-20 08:34:00,
2013-07-20 01:44:00,61.2,53.5,29.92,North,0,0.0,0.0,76,0.00,OVC,OVC,0.00,WeatherDisplay:10.37,2013-07-20 08:44:00,
2013-07-20 01:54:00,60.8,53.5,29.92,North,0,0.0,0.0,77,0.00,OVC,OVC,0.00,WeatherDisplay:10.37,2013-07-20 08:54:00,
2013-07-20 02:04:00,60.6,53.4,29.92,North,0,0.0,0.0,77,0.00,OVC,OVC,0.00,WeatherDisplay:10.37,2013-07-20 09:04:00,
2013-07-20 02:09:00,60.4,53.2,29.92,North,0,0.0,0.0,77,0.00,OVC,OVC,0.00,WeatherDisplay:10.37,2013-07-20 09:09:00,
2013-07-20 02:14:00,60.4,53.2,29.92,North,0,0.0,0.0,77,0.00,OVC,OVC,0.00,WeatherDisplay:10.37,2013-07-20 09:14:00,
2013-07-20 02:24:00,60.3,53.0,29.92,North,0,0.0,0.0,77,0.00,OVC,OVC,0.00,WeatherDisplay:10.37,2013-07-20 09:24:00,
2013-07-20 02:34:00,59.9,53.0,29.92,North,0,0.0,0.0,78,0.00,OVC,OVC,0.00,WeatherDisplay:10.37,2013-07-20 09:34:00,
2013-07-20 02:44:00,59.7,52.8,29.92,North,0,0.0,0.0,78,0.00,OVC,OVC,0.00,WeatherDisplay:10.37,2013-07-20 09:44:00,
2013-07-20 02:54:00,59.5,52.7,29.92,North,0,0.0,0.0,78,0.00,OVC,OVC,0.00,WeatherDisplay:10.37,2013-07-20 09:54:00,
2013-07-20 02:59:00,59.4,52.5,29.92,North,0,0.0,0.0,78,0.00,OVC,OVC,0.00,WeatherDisplay:10.37,2013-07-20 09:59:00,
2013-07-20 03:09:00,59.2,52.7,29.92,North,0,0.0,0.0,79,0.00,OVC,OVC,0.00,WeatherDisplay:10.37,2013-07-20 10:09:00,
2013-07-20 03:14:00,59.0,52.5,29.92,North,0,0.0,0.0,79,0.00,OVC,OVC,0.00,WeatherDisplay:10.37,2013-07-20 10:14:00,
2013-07-20 03:24:00,59.0,52.5,29.92,North,0,0.0,0.0,79,0.00,OVC,OVC,0.00,WeatherDisplay:10.37,2013-07-20 10:24:00,
2013-07-20 03:34:00,59.0,52.8,29.92,North,0,0.0,0.0,80,0.00,OVC,OVC,0.00,WeatherDisplay:10.37,2013-07-20 10:34:00,
2013-07-20 03:44:00,58.8,52.7,29.92,North,0,0.0,0.0,80,0.00,OVC,OVC,0.00,WeatherDisplay:10.37,2013-07-20 10:44:00,
2013-07-20 03:54:00,58.6,52.5,29.92,North,0,0.0,0.0,80,0.00,OVC,OVC,0.00,WeatherDisplay:10.37,2013-07-20 10:54:00,
2013-07-20 04:04:00,58.5,52.3,29.92,North,0,0.0,0.0,80,0.00,OVC,OVC,0.00,WeatherDisplay:10.37,2013-07-20 11:04:00,
2013-07-20 04:09:00,58.3,52.1,29.92,North,0,0.0,0.0,80,0.00,OVC,OVC,0.00,WeatherDisplay:10.37,2013-07-20 11:09:00,
2013-07-20 04:14:00,58.1,52.0,29.92,North,0,0.0,0.0,80,0.00,OVC,OVC,0.00,WeatherDisplay:10.37,2013-07-20 11:14:00,
2013-07-20 04:24:00,58.1,52.0,29.92,North,0,0.0,0.0,80,0.00,OVC,OVC,0.00,WeatherDisplay:10.37,2013-07-20 11:24:00,
2013-07-20 04:34:00,58.1,52.0,29.92,North,0,0.0,0.0,80,0.00,OVC,OVC,0.00,WeatherDisplay:10.37,2013-07-20 11:34:00,
2013-07-20 04:44:00,58.1,52.3,29.92,North,0,0.0,0.0,81,0.00,OVC,OVC,0.00,WeatherDisplay:10.37,2013-07-20 11:44:00,
2013-07-20 04:54:00,57.9,52.1,29.92,North,0,0.0,0.0,81,0.00,OVC,OVC,0.00,WeatherDisplay:10.37,2013-07-20 11:54:00,
2013-07-20 05:04:00,57.9,52.5,29.92,North,0,0.0,0.0,82,0.00,OVC,OVC,0.00,WeatherDisplay:10.37,2013-07-20 12:04:00,
2013-07-20 05:09:00,57.9,52.5,29.92,North,0,0.0,0.0,82,0.00,CLR,CLR,0.00,WeatherDisplay:10.37,2013-07-20 12:09:00,
2013-07-20 05:14:00,57.9,52.5,29.92,North,0,0.0,0.0,82,0.00,CLR,CLR,0.00,WeatherDisplay:10.37,2013-07-20 12:14:00,
2013-07-20 05:24:00,58.1,53.0,29.92,North,0,0.0,0.0,83,0.00,CLR,CLR,0.00,WeatherDisplay:10.37,2013-07-20 12:24:00,
2013-07-20 05:29:00,58.1,53.0,29.92,North,0,0.0,0.0,83,0.00,CLR,CLR,0.00,WeatherDisplay:10.37,2013-07-20 12:29:00,
2013-07-20 05:34:00,58.1,53.0,29.92,North,0,0.0,0.0,83,0.00,CLR,CLR,0.00,WeatherDisplay:10.37,2013-07-20 12:34:00,
2013-07-20 05:44:00,58.1,53.0,29.92,North,0,0.0,0.0,83,0.00,CLR,CLR,0.00,WeatherDisplay:10.37,2013-07-20 12:44:00,
2013-07-20 05:54:00,57.9,52.8,29.92,North,0,0.0,0.0,83,0.00,CLR,CLR,0.00,WeatherDisplay:10.37,2013-07-20 12:54:00,
2013-07-20 06:04:00,57.9,52.8,29.92,North,0,0.0,0.0,83,0.00,CLR,CLR,0.00,WeatherDisplay:10.37,2013-07-20 13:04:00,
2013-07-20 06:14:00,58.1,53.0,29.92,North,0,0.0,0.0,83,0.00,CLR,CLR,0.00,WeatherDisplay:10.37,2013-07-20 13:14:00,
2013-07-20 06:24:00,58.1,53.0,29.92,North,0,0.0,0.0,83,0.00,CLR,CLR,0.00,WeatherDisplay:10.37,2013-07-20 13:24:00,
2013-07-20 06:34:00,58.1,53.0,29.92,North,0,0.0,0.0,83,0.00,CLR,CLR,0.00,WeatherDisplay:10.37,2013-07-20 13:34:00,
2013-07-20 06:44:00,58.1,53.0,29.92,North,0,0.0,0.0,83,0.00,CLR,CLR,0.00,WeatherDisplay:10.37,2013-07-20 13:44:00,
2013-07-20 06:54:00,58.3,53.1,29.92,North,0,0.0,0.0,83,0.00,CLR,CLR,0.00,WeatherDisplay:10.37,2013-07-20 13:54:00,
2013-07-20 07:04:00,58.5,53.6,29.92,North,0,0.0,0.0,84,0.00,CLR,CLR,0.00,WeatherDisplay:10.37,2013-07-20 14:04:00,
2013-07-20 07:09:00,58.5,53.6,29.92,North,0,0.0,0.0,84,0.00,CLR,CLR,0.00,WeatherDisplay:10.37,2013-07-20 14:09:00,
2013-07-20 07:14:00,58.5,53.6,29.92,North,0,0.0,0.0,84,0.00,CLR,CLR,0.00,WeatherDisplay:10.37,2013-07-20 14:14:00,
2013-07-20 07:24:00,58.8,54.0,29.92,North,0,0.0,0.0,84,0.00,CLR,CLR,0.00,WeatherDisplay:10.37,2013-07-20 14:24:00,
2013-07-20 07:34:00,59.0,54.2,29.92,North,0,0.0,0.0,84,0.00,CLR,CLR,0.00,WeatherDisplay:10.37,2013-07-20 14:34:00,
2013-07-20 07:44:00,59.0,54.2,29.92,North,0,0.0,0.0,84,0.00,CLR,CLR,0.00,WeatherDisplay:10.37,2013-07-20 14:44:00,
2013-07-20 07:54:00,59.0,54.2,29.92,North,0,0.0,0.0,84,0.00,CLR,CLR,0.00,WeatherDisplay:10.37,2013-07-20 14:54:00,
2013-07-20 08:04:00,59.0,54.2,29.92,North,0,0.0,0.0,84,0.00,CLR,CLR,0.00,WeatherDisplay:10.37,2013-07-20 15:04:00,
2013-07-20 08:14:00,59.0,54.2,29.92,North,0,0.0,0.0,84,0.00,CLR,CLR,0.00,WeatherDisplay:10.37,2013-07-20 15:14:00,
2013-07-20 08:24:00,59.4,54.5,29.92,North,0,0.0,0.0,84,0.00,CLR,CLR,0.00,WeatherDisplay:10.37,2013-07-20 15:24:00,
2013-07-20 08:34:00,59.5,54.7,29.92,North,0,0.0,0.0,84,0.00,CLR,CLR,0.00,WeatherDisplay:10.37,2013-07-20 15:34:00,
2013-07-20 08:44:00,59.5,54.7,29.92,North,0,0.0,0.0,84,0.00,CLR,CLR,0.00,WeatherDisplay:10.37,2013-07-20 15:44:00,
2013-07-20 08:54:00,59.7,54.9,29.92,North,0,0.0,0.0,84,0.00,CLR,CLR,0.00,WeatherDisplay:10.37,2013-07-20 15:54:00,
2013-07-20 09:04:00,60.1,55.2,29.92,North,0,0.0,0.0,84,0.00,CLR,CLR,0.00,WeatherDisplay:10.37,2013-07-20 16:04:00,
2013-07-20 09:09:00,60.3,55.7,29.92,North,0,0.0,0.0,85,0.00,OVC,OVC,0.00,WeatherDisplay:10.37,2013-07-20 16:09:00,
2013-07-20 09:14:00,60.3,55.7,29.92,North,0,0.0,0.0,85,0.00,OVC,OVC,0.00,WeatherDisplay:10.37,2013-07-20 16:14:00,
2013-07-20 09:24:00,60.6,56.1,29.92,North,0,0.0,0.0,85,0.00,OVC,OVC,0.00,WeatherDisplay:10.37,2013-07-20 16:24:00,
2013-07-20 09:34:00,61.0,56.1,29.92,North,0,0.0,0.0,84,0.00,OVC,OVC,0.00,WeatherDisplay:10.37,2013-07-20 16:34:00,
2013-07-20 09:39:00,61.0,56.1,29.92,North,0,0.0,0.0,84,0.00,OVC,OVC,0.00,WeatherDisplay:10.37,2013-07-20 16:39:00,
2013-07-20 09:44:00,61.0,56.1,29.92,North,0,0.0,0.0,84,0.00,OVC,OVC,0.00,WeatherDisplay:10.37,2013-07-20 16:44:00,
2013-07-20 09:49:00,61.2,56.3,29.92,North,0,0.0,0.0,84,0.00,OVC,OVC,0.00,WeatherDisplay:10.37,2013-07-20 16:49:00,
2013-07-20 09:54:00,61.3,56.5,29.92,North,0,0.0,0.0,84,0.00,OVC,OVC,0.00,WeatherDisplay:10.37,2013-07-20 16:54:00,
2013-07-20 10:04:00,61.5,56.6,29.92,North,0,0.0,0.0,84,0.00,OVC,OVC,0.00,WeatherDisplay:10.37,2013-07-20 17:04:00,
2013-07-20 10:09:00,61.5,56.3,29.92,North,0,0.0,0.0,83,0.00,OVC,OVC,0.00,WeatherDisplay:10.37,2013-07-20 17:09:00,
2013-07-20 10:14:00,61.7,56.8,29.92,North,0,0.0,0.0,84,0.00,OVC,OVC,0.00,WeatherDisplay:10.37,2013-07-20 17:14:00,
2013-07-20 10:24:00,61.9,56.7,29.92,North,0,0.0,0.0,83,0.00,OVC,OVC,0.00,WeatherDisplay:10.37,2013-07-20 17:24:00,
2013-07-20 10:34:00,62.2,57.0,29.92,North,0,0.0,0.0,83,0.00,OVC,OVC,0.00,WeatherDisplay:10.37,2013-07-20 17:34:00,
2013-07-20 10:44:00,62.2,56.7,29.92,North,0,0.0,0.0,82,0.00,OVC,OVC,0.00,WeatherDisplay:10.37,2013-07-20 17:44:00,
2013-07-20 10:54:00,62.4,56.9,29.92,North,0,0.0,0.0,82,0.00,OVC,OVC,0.00,WeatherDisplay:10.37,2013-07-20 17:54:00,
2013-07-20 11:04:00,62.8,57.2,29.92,North,0,0.0,0.0,82,0.00,OVC,OVC,0.00,WeatherDisplay:10.37,2013-07-20 18:04:00,
2013-07-20 11:09:00,62.8,56.9,29.92,North,0,0.0,0.0,81,0.00,OVC,OVC,0.00,WeatherDisplay:10.37,2013-07-20 18:09:00,
2013-07-20 11:14:00,63.0,57.0,29.92,North,0,0.0,0.0,81,0.00,OVC,OVC,0.00,WeatherDisplay:10.37,2013-07-20 18:14:00,
2013-07-20 11:24:00,63.3,57.4,29.92,North,0,0.0,0.0,81,0.00,OVC,OVC,0.00,WeatherDisplay:10.37,2013-07-20 18:24:00,
2013-07-20 11:34:00,63.7,57.4,29.92,North,0,0.0,0.0,80,0.00,OVC,OVC,0.00,WeatherDisplay:10.37,2013-07-20 18:34:00,
2013-07-20 11:49:00,63.9,57.2,29.92,North,0,0.0,0.0,79,0.00,OVC,OVC,0.00,WeatherDisplay:10.37,2013-07-20 18:49:00,
2013-07-20 11:54:00,64.2,57.6,29.92,North,0,0.0,0.0,79,0.00,OVC,OVC,0.00,WeatherDisplay:10.37,2013-07-20 18:54:00,
2013-07-20 12:04:00,64.4,57.7,29.92,North,0,0.0,0.0,79,0.00,OVC,OVC,0.00,WeatherDisplay:10.37,2013-07-20 19:04:00,
2013-07-20 12:09:00,64.6,57.6,29.92,North,0,0.0,0.0,78,0.00,OVC,OVC,0.00,WeatherDisplay:10.37,2013-07-20 19:09:00,
2013-07-20 12:19:00,64.9,57.9,29.92,North,0,0.0,0.0,78,0.00,OVC,OVC,0.00,WeatherDisplay:10.37,2013-07-20 19:19:00,
2013-07-20 12:24:00,65.1,57.7,29.92,North,0,0.0,0.0,77,0.00,OVC,OVC,0.00,WeatherDisplay:10.37,2013-07-20 19:24:00,
2013-07-20 12:34:00,65.5,58.1,29.92,North,0,0.0,0.0,77,0.00,OVC,OVC,0.00,WeatherDisplay:10.37,2013-07-20 19:34:00,
2013-07-20 12:44:00,66.0,58.2,29.92,North,0,0.0,0.0,76,0.00,OVC,OVC,0.00,WeatherDisplay:10.37,2013-07-20 19:44:00,
2013-07-20 12:49:00,66.0,57.9,29.92,North,0,0.0,0.0,75,0.00,OVC,OVC,0.00,WeatherDisplay:10.37,2013-07-20 19:49:00,
2013-07-20 12:54:00,66.4,58.2,29.92,North,0,0.0,0.0,75,0.00,OVC,OVC,0.00,WeatherDisplay:10.37,2013-07-20 19:54:00,
2013-07-20 13:04:00,66.7,58.2,29.92,North,0,0.0,0.0,74,0.00,OVC,OVC,0.00,WeatherDisplay:10.37,2013-07-20 20:04:00,
2013-07-20 13:14:00,67.5,58.5,29.92,North,0,0.0,0.0,73,0.00,BKN,BKN,0.00,WeatherDisplay:10.37,2013-07-20 20:14:00,
2013-07-20 13:24:00,68.4,59.0,29.92,North,0,0.0,0.0,72,0.00,BKN,BKN,0.00,WeatherDisplay:10.37,2013-07-20 20:24:00,
2013-07-20 13:34:00,68.5,58.8,29.92,North,0,0.0,0.0,71,0.00,BKN,BKN,0.00,WeatherDisplay:10.37,2013-07-20 20:34:00,
2013-07-20 13:49:00,69.4,59.2,29.92,North,0,0.0,0.0,70,0.00,BKN,BKN,0.00,WeatherDisplay:10.37,2013-07-20 20:49:00,
2013-07-20 13:54:00,69.6,59.4,29.92,North,0,0.0,0.0,70,0.00,BKN,BKN,0.00,WeatherDisplay:10.37,2013-07-20 20:54:00,
2013-07-20 14:04:00,70.0,59.3,29.92,North,0,0.0,0.0,69,0.00,BKN,BKN,0.00,WeatherDisplay:10.37,2013-07-20 21:04:00,
2013-07-20 14:09:00,70.2,59.5,29.92,North,0,0.0,0.0,69,0.00,FEW,FEW,0.00,WeatherDisplay:10.37,2013-07-20 21:09:00,
2013-07-20 14:14:00,70.3,59.7,29.92,North,0,0.0,0.0,69,0.00,FEW,FEW,0.00,WeatherDisplay:10.37,2013-07-20 21:14:00,
2013-07-20 14:29:00,71.2,60.1,29.92,North,0,0.0,0.0,68,0.00,FEW,FEW,0.00,WeatherDisplay:10.37,2013-07-20 21:29:00,
2013-07-20 14:39:00,71.4,59.9,29.92,North,0,0.0,0.0,67,0.00,FEW,FEW,0.00,WeatherDisplay:10.37,2013-07-20 21:39:00,
2013-07-20 14:44:00,71.6,60.1,29.92,North,0,0.0,0.0,67,0.00,FEW,FEW,0.00,WeatherDisplay:10.37,2013-07-20 21:44:00,
2013-07-20 14:54:00,72.1,60.2,29.92,North,0,0.0,0.0,66,0.00,FEW,FEW,0.00,WeatherDisplay:10.37,2013-07-20 21:54:00,
2013-07-20 15:04:00,72.5,60.1,29.92,North,0,0.0,0.0,65,0.00,FEW,FEW,0.00,WeatherDisplay:10.37,2013-07-20 22:04:00,
2013-07-20 15:09:00,73.0,60.6,29.92,North,0,0.0,0.0,65,0.00,CLR,CLR,0.00,WeatherDisplay:10.37,2013-07-20 22:09:00,
2013-07-20 15:14:00,73.0,60.1,29.92,North,0,0.0,0.0,64,0.00,CLR,CLR,0.00,WeatherDisplay:10.37,2013-07-20 22:14:00,
2013-07-20 15:29:00,73.6,60.2,29.92,North,0,0.0,0.0,63,0.00,CLR,CLR,0.00,WeatherDisplay:10.37,2013-07-20 22:29:00,
2013-07-20 15:34:00,73.8,60.4,29.92,North,0,0.0,0.0,63,0.00,CLR,CLR,0.00,WeatherDisplay:10.37,2013-07-20 22:34:00,
2013-07-20 15:54:00,74.5,60.6,29.92,North,0,0.0,0.0,62,0.00,CLR,CLR,0.00,WeatherDisplay:10.37,2013-07-20 22:54:00,
2013-07-20 16:04:00,74.7,60.3,29.92,North,0,0.0,0.0,61,0.00,CLR,CLR,0.00,WeatherDisplay:10.37,2013-07-20 23:04:00,
2013-07-20 16:09:00,75.0,60.7,29.92,North,0,0.0,0.0,61,0.00,CLR,CLR,0.00,WeatherDisplay:10.37,2013-07-20 23:09:00,
2013-07-20 16:14:00,75.0,60.7,29.92,North,0,0.0,0.0,61,0.00,CLR,CLR,0.00,WeatherDisplay:10.37,2013-07-20 23:14:00,
2013-07-20 16:24:00,75.4,60.5,29.92,North,0,0.0,0.0,60,0.00,CLR,CLR,0.00,WeatherDisplay:10.37,2013-07-20 23:24:00,
2013-07-20 16:29:00,75.6,60.7,29.92,North,0,0.0,0.0,60,0.00,CLR,CLR,0.00,WeatherDisplay:10.37,2013-07-20 23:29:00,
2013-07-20 16:39:00,75.7,60.9,29.92,North,0,0.0,0.0,60,0.00,CLR,CLR,0.00,WeatherDisplay:10.37,2013-07-20 23:39:00,
2013-07-20 16:44:00,75.9,61.0,29.92,North,0,0.0,0.0,60,0.00,CLR,CLR,0.00,WeatherDisplay:10.37,2013-07-20 23:44:00,
2013-07-20 16:54:00,76.5,62.9,29.92,North,0,0.0,0.0,63,0.00,CLR,CLR,0.00,WeatherDisplay:10.37,2013-07-20 23:54:00,
2013-07-20 17:04:00,79.3,63.8,29.92,North,0,0.0,0.0,59,0.00,CLR,CLR,0.00,WeatherDisplay:10.37,2013-07-21 00:04:00,
2013-07-20 17:09:00,82.2,65.0,29.92,North,0,0.0,0.0,56,0.00,CLR,CLR,0.00,WeatherDisplay:10.37,2013-07-21 00:09:00,
2013-07-20 17:14:00,81.9,63.1,29.92,North,0,0.0,0.0,53,0.00,CLR,CLR,0.00,WeatherDisplay:10.37,2013-07-21 00:14:00,
2013-07-20 17:24:00,82.4,63.0,29.92,North,0,0.0,0.0,52,0.00,CLR,CLR,0.00,WeatherDisplay:10.37,2013-07-21 00:24:00,
2013-07-20 17:34:00,83.7,64.2,29.92,North,0,0.0,0.0,52,0.00,CLR,CLR,0.00,WeatherDisplay:10.37,2013-07-21 00:34:00,
2013-07-20 17:49:00,81.5,61.6,29.92,North,0,0.0,0.0,51,0.00,CLR,CLR,0.00,WeatherDisplay:10.37,2013-07-21 00:49:00,
2013-07-20 17:54:00,80.8,61.0,29.92,North,0,0.0,0.0,51,0.00,CLR,CLR,0.00,WeatherDisplay:10.37,2013-07-21 00:54:00,
2013-07-20 18:04:00,79.7,61.1,29.92,North,0,0.0,0.0,53,0.00,CLR,CLR,0.00,WeatherDisplay:10.37,2013-07-21 01:04:00,
2013-07-20 18:09:00,79.3,61.2,29.92,North,0,0.0,0.0,54,0.00,CLR,CLR,0.00,WeatherDisplay:10.37,2013-07-21 01:09:00,
2013-07-20 18:14:00,79.0,60.4,29.92,North,0,0.0,0.0,53,0.00,CLR,CLR,0.00,WeatherDisplay:10.37,2013-07-21 01:14:00,
2013-07-20 18:24:00,78.4,60.9,29.92,North,0,0.0,0.0,55,0.00,CLR,CLR,0.00,WeatherDisplay:10.37,2013-07-21 01:24:00,
2013-07-20 18:34:00,77.5,60.6,29.92,North,0,0.0,0.0,56,0.00,CLR,CLR,0.00,WeatherDisplay:10.37,2013-07-21 01:34:00,
2013-07-20 18:44:00,76.8,60.9,29.92,North,0,0.0,0.0,58,0.00,CLR,CLR,0.00,WeatherDisplay:10.37,2013-07-21 01:44:00,
2013-07-20 18:54:00,76.3,60.9,29.92,North,0,0.0,0.0,59,0.00,CLR,CLR,0.00,WeatherDisplay:10.37,2013-07-21 01:54:00,
2013-07-20 18:59:00,75.7,60.4,29.92,North,0,0.0,0.0,59,0.00,CLR,CLR,0.00,WeatherDisplay:10.37,2013-07-21 01:59:00,
2013-07-20 19:09:00,75.2,60.4,29.92,North,0,0.0,0.0,60,0.00,CLR,CLR,0.00,WeatherDisplay:10.37,2013-07-21 02:09:00,
2013-07-20 19:14:00,75.0,60.2,29.92,North,0,0.0,0.0,60,0.00,CLR,CLR,0.00,WeatherDisplay:10.37,2013-07-21 02:14:00,
2013-07-20 19:24:00,74.5,60.1,29.92,North,0,0.0,0.0,61,0.00,CLR,CLR,0.00,WeatherDisplay:10.37,2013-07-21 02:24:00,
2013-07-20 19:39:00,73.8,59.9,29.92,North,0,0.0,0.0,62,0.00,CLR,CLR,0.00,WeatherDisplay:10.37,2013-07-21 02:39:00,
2013-07-20 19:44:00,73.6,60.2,29.92,North,0,0.0,0.0,63,0.00,CLR,CLR,0.00,WeatherDisplay:10.37,2013-07-21 02:44:00,
2013-07-20 19:54:00,72.9,60.0,29.92,North,0,0.0,0.0,64,0.00,CLR,CLR,0.00,WeatherDisplay:10.37,2013-07-21 02:54:00,
2013-07-20 20:04:00,72.5,60.1,29.92,North,0,0.0,0.0,65,0.00,CLR,CLR,0.00,WeatherDisplay:10.37,2013-07-21 03:04:00,
2013-07-20 20:09:00,72.1,60.2,29.92,North,0,0.0,0.0,66,0.00,CLR,CLR,0.00,WeatherDisplay:10.37,2013-07-21 03:09:00,
2013-07-20 20:14:00,72.0,60.0,29.92,North,0,0.0,0.0,66,0.00,CLR,CLR,0.00,WeatherDisplay:10.37,2013-07-21 03:14:00,
2013-07-20 20:24:00,71.6,60.1,29.92,North,0,0.0,0.0,67,0.00,CLR,CLR,0.00,WeatherDisplay:10.37,2013-07-21 03:24:00,
2013-07-20 20:34:00,71.1,59.5,29.92,North,0,0.0,0.0,67,0.00,CLR,CLR,0.00,WeatherDisplay:10.37,2013-07-21 03:34:00,
2013-07-20 20:44:00,70.7,59.2,29.92,North,0,0.0,0.0,67,0.00,CLR,CLR,0.00,WeatherDisplay:10.37,2013-07-21 03:44:00,
2013-07-20 20:49:00,70.3,58.9,29.92,North,0,0.0,0.0,67,0.00,CLR,CLR,0.00,WeatherDisplay:10.37,2013-07-21 03:49:00,
2013-07-20 20:54:00,70.2,58.7,29.92,North,0,0.0,0.0,67,0.00,CLR,CLR,0.00,WeatherDisplay:10.37,2013-07-21 03:54:00,
2013-07-20 21:04:00,69.6,58.2,29.92,North,0,0.0,0.0,67,0.00,CLR,CLR,0.00,WeatherDisplay:10.37,2013-07-21 04:04:00,
2013-07-20 21:14:00,69.3,58.2,29.92,North,0,0.0,0.0,68,0.00,CLR,CLR,0.00,WeatherDisplay:10.37,2013-07-21 04:14:00,
2013-07-20 21:19:00,68.9,58.3,29.92,North,0,0.0,0.0,69,0.00,CLR,CLR,0.00,WeatherDisplay:10.37,2013-07-21 04:19:00,
2013-07-20 21:24:00,68.9,58.3,29.92,North,0,0.0,0.0,69,0.00,CLR,CLR,0.00,WeatherDisplay:10.37,2013-07-21 04:24:00,
2013-07-20 21:34:00,68.5,58.4,29.92,North,0,0.0,0.0,70,0.00,CLR,CLR,0.00,WeatherDisplay:10.37,2013-07-21 04:34:00,
2013-07-20 21:44:00,68.2,58.0,29.92,North,0,0.0,0.0,70,0.00,CLR,CLR,0.00,WeatherDisplay:10.37,2013-07-21 04:44:00,
2013-07-20 21:54:00,67.8,57.3,29.92,North,0,0.0,0.0,69,0.00,CLR,CLR,0.00,WeatherDisplay:10.37,2013-07-21 04:54:00,
2013-07-20 22:04:00,67.5,57.3,29.92,North,0,0.0,0.0,70,0.00,CLR,CLR,0.00,WeatherDisplay:10.37,2013-07-21 05:04:00,
2013-07-20 22:09:00,67.3,57.2,29.92,North,0,0.0,0.0,70,0.00,CLR,CLR,0.00,WeatherDisplay:10.37,2013-07-21 05:09:00,
2013-07-20 22:14:00,67.1,57.0,29.92,North,0,0.0,0.0,70,0.00,CLR,CLR,0.00,WeatherDisplay:10.37,2013-07-21 05:14:00,
2013-07-20 22:24:00,66.9,57.2,29.92,North,0,0.0,0.0,71,0.00,CLR,CLR,0.00,WeatherDisplay:10.37,2013-07-21 05:24:00,
2013-07-20 22:34:00,66.6,57.3,29.92,North,0,0.0,0.0,72,0.00,CLR,CLR,0.00,WeatherDisplay:10.37,2013-07-21 05:34:00,
2013-07-20 22:44:00,66.4,57.1,29.92,North,0,0.0,0.0,72,0.00,CLR,CLR,0.00,WeatherDisplay:10.37,2013-07-21 05:44:00,
2013-07-20 22:54:00,66.0,57.1,29.92,North,0,0.0,0.0,73,0.00,CLR,CLR,0.00,WeatherDisplay:10.37,2013-07-21 05:54:00,
2013-07-20 23:04:00,65.8,57.3,29.92,North,0,0.0,0.0,74,0.00,CLR,CLR,0.00,WeatherDisplay:10.37,2013-07-21 06:04:00,
2013-07-20 23:09:00,65.7,57.1,29.92,North,0,0.0,0.0,74,0.00,CLR,CLR,0.00,WeatherDisplay:10.37,2013-07-21 06:09:00,
2013-07-20 23:14:00,65.7,57.1,29.92,North,0,0.0,0.0,74,0.00,CLR,CLR,0.00,WeatherDisplay:10.37,2013-07-21 06:14:00,
2013-07-20 23:19:00,65.5,57.3,29.92,North,0,0.0,0.0,75,0.00,CLR,CLR,0.00,WeatherDisplay:10.37,2013-07-21 06:19:00,
2013-07-20 23:24:00,65.3,56.8,29.92,North,0,0.0,0.0,74,0.00,CLR,CLR,0.00,WeatherDisplay:10.37,2013-07-21 06:24:00,
2013-07-20 23:34:00,65.1,57.0,29.92,North,0,0.0,0.0,75,0.00,CLR,CLR,0.00,WeatherDisplay:10.37,2013-07-21 06:34:00,
2013-07-20 23:44:00,64.8,56.6,29.92,North,0,0.0,0.0,75,0.00,CLR,CLR,0.00,WeatherDisplay:10.37,2013-07-21 06:44:00,
2013-07-20 23:54:00,64.6,56.8,29.92,North,0,0.0,0.0,76,0.00,CLR,CLR,0.00,WeatherDisplay:10.37,2013-07-21 06:54:00,